x

Cape Suckling - 35 Nm Se Of Kayak Is, Ak (46082) Wave Buoy

11:50pm - Sat 22nd Nov 2014 All times are AKST. -9 hours from GMT.

  • Sig Wave height 10.5ft
  • Peak Period 13s
  • Average Period 8s
  • Wind
    11mph, 13mph gusts
  • Sea Temp 50°f
  • Air Temp 47°f
  • Sea Pressure 994.5mb
  • Cape Suckling - 35 Nm Se Of Kayak Is, Ak
  • Cape Suckling - 35 Nm Se Of Kayak Is, Ak

More Historic Weather Station data

Upgrade to MSW Pro to gain access to the past 30 days of data for over 8000 Wavebouys and Weather Stations around the globe.

Join Pro

Comparision Forecast

View Surf forecast
   
Sat 11/22 11:50pm 10.5ft 13s 8s 11 13 mph 994.5mb 50f 47f
10:50pm 10ft 13s 8s 9 13 mph 993.9mb 50f 47f
9:50pm 9.5ft 13s 7s 9 18 mph 993.2mb 50f 46f
8:50pm 12ft 13s 8s 7 16 mph 992.8mb 50f 45f
7:50pm 11ft 14s 7s 9 13 mph 992.1mb 50f 47f
6:50pm 10.5ft 13s 7s 9 16 mph 991.8mb 50f 45f
5:50pm 11ft 12s 7s 11 16 mph 991.3mb 50f 44f
4:50pm 12.5ft 11s 8s 11 13 mph 990.8mb 50f 43f
3:50pm 10.5ft 13s 7s 11 16 mph 990.1mb 50f 45f
2:50pm 10ft 11s 7s 16 18 mph 989.5mb 50f 45f
1:50pm 10.5ft 9s 7s 20 27 mph 989mb 50f 44f
12:50pm 10ft 11s 7s 20 22 mph 988.7mb 50f 44f
11:50am 11ft 11s 7s 18 22 mph 988.4mb 50f 44f
10:50am 11ft 11s 7s 16 20 mph 988.1mb 50f 45f
9:50am 12ft 11s 7s 18 22 mph 987.6mb 50f 45f
8:50am 11ft 11s 7s 22 27 mph 986.9mb 50f 44f
7:50am 11ft 11s 7s 13 20 mph 986.5mb 50f 46f
6:50am 13ft 13s 7s 25 34 mph 985.9mb 50f 46f
5:50am 11ft 12s 7s 25 31 mph 985.8mb 50f 45f
4:50am 11ft 11s 7s 25 29 mph 985.7mb 50f 45f
3:50am 11.5ft 11s 7s 22 29 mph 985.4mb 50f 45f
2:50am 11ft 11s 7s 22 27 mph 985.1mb 50f 45f
1:50am 11.5ft 13s 7s 18 25 mph 985.1mb 50f 45f
12:50am 12ft 13s 8s 16 18 mph 984.8mb 50f 47f
Fri 11/21 11:50pm 12ft 13s 8s 13 18 mph 984.6mb 50f 46f
10:50pm 12.5ft 14s 8s 13 16 mph 984mb 50f 46f
9:50pm 11.5ft 13s 8s 16 18 mph 983.4mb 50f 46f
8:50pm 14ft 14s 8s 13 20 mph 982.9mb 50f 46f
7:50pm 12ft 14s 8s 9 11 mph 982.5mb 50f 45f
6:50pm 13.5ft 15s 8s 13 18 mph 981.9mb 50f 45f
5:50pm 15ft 14s 8s 18 22 mph 981.3mb 50f 44f
4:50pm 13ft 11s 8s 9 11 mph 980.9mb 50f 44f
3:50pm 14.5ft 14s 8s 7 11 mph 980.5mb 50f 44f
2:50pm 16.5ft 15s 8s 13 16 mph 979.6mb 50f 44f
1:50pm 15.5ft 15s 8s 25 29 mph 979.5mb 50f 46f
12:50pm 17ft 15s 8s 25 31 mph 979.6mb 50f 46f
11:50am 17.5ft 15s 8s 27 31 mph 979.8mb 50f 46f
10:50am 16ft 14s 8s 31 40 mph 979.8mb 50f 47f
9:50am 17.5ft 16s 8s 31 40 mph 980.1mb 50f 47f
8:50am 15.5ft 16s 7s 31 38 mph 980.4mb 50f 45f
7:50am 16.5ft 15s 8s 34 45 mph 980.9mb 50f 46f
6:50am 16.5ft 15s 8s 34 43 mph 981.8mb 50f 46f
5:50am 14ft 11s 7s 34 40 mph 982.5mb 50f 47f
4:50am 15ft 14s 8s 31 36 mph 983.5mb 50f 47f
3:50am 14ft 13s 7s 29 36 mph 984.1mb 50f 48f
2:50am 14ft 11s 7s 27 36 mph 985mb 50f 47f
1:50am 12ft 11s 7s 27 31 mph 985.8mb 50f 47f
12:50am 10.5ft 9s 6s 22 29 mph 986.7mb 50f 46f
Thu 11/20 11:50pm 10ft 10s 6s 25 31 mph 987.2mb 50f 47f
10:50pm 11ft 10s 6s 27 34 mph 987.9mb 50f 48f
9:50pm 9.5ft 8s 6s 25 31 mph 988.7mb 50f 48f
8:50pm 9ft 8s 5s 25 29 mph 989.5mb 50f 47f
7:50pm 8ft 8s 5s 27 31 mph 990.4mb 50f 46f
6:50pm 7ft 9s 5s 25 29 mph 991.5mb 50f 46f
5:50pm 6ft 8s 5s 22 27 mph 992.6mb 50f 46f
4:50pm 6ft 9s 5s 18 22 mph 993.6mb 50f 46f
3:50pm 6ft 9s 5s 20 25 mph 994.4mb 50f 46f
2:50pm 6ft 9s 5s 20 22 mph 995.4mb 50f 46f
1:50pm 6ft 9s 5s 18 22 mph 996.5mb 50f 46f
12:50pm 5ft 8s 5s 20 25 mph 997.5mb 50f 46f
11:50am 5ft 10s 5s 16 20 mph 998.5mb 50f 46f
10:50am 5.5ft 9s 6s 16 20 mph 999.3mb 50f 46f
9:50am 5.5ft 8s 6s 16 18 mph 999.8mb 50f 46f
8:50am 6ft 9s 6s 13 18 mph 1000.6mb 50f 46f
7:50am 5.5ft 9s 6s 13 16 mph 1001.3mb 50f 46f
6:50am 6ft 11s 6s 13 18 mph 1002.1mb 50f 46f
5:50am 5ft 10s 6s 16 20 mph 1002.7mb 50f 46f
4:50am 6ft 9s 7s 13 18 mph 1003.6mb 50f 46f
3:50am 6ft 10s 7s 11 16 mph 1004.6mb 50f 46f
2:50am 7ft 10s 7s 13 16 mph 1005.2mb 50f 46f
1:50am 6.5ft 9s 7s 13 16 mph 1006mb 50f 47f
12:50am 6.5ft 12s 7s 11 13 mph 1006.5mb 50f 47f
Wed 11/19 11:50pm 7ft 11s 7s 11 16 mph 1007mb 50f 47f
10:50pm 8ft 10s 8s 11 13 mph 1007.8mb 50f 47f
9:50pm 7.5ft 9s 7s 9 11 mph 1008.3mb 51f 47f
8:50pm 8.5ft 12s 8s 9 11 mph 1008.8mb 51f 47f
7:50pm 8ft 10s 8s 11 13 mph 1009.3mb 51f 47f
6:50pm 9ft 10s 8s 11 13 mph 1009.5mb 51f 47f
5:50pm 8ft 10s 8s 11 13 mph 1009.9mb 50f 47f
4:50pm 9ft 14s 8s 9 13 mph 1010.2mb 51f 47f
3:50pm 8.5ft 13s 8s 11 13 mph 1010.4mb 51f 47f
2:50pm 10ft 10s 8s 11 13 mph 1010.6mb 51f 47f
1:50pm 10ft 14s 9s 11 13 mph 1010.9mb 51f 47f
12:50pm 9.5ft 11s 8s 11 16 mph 1011mb 51f 47f
11:50am 9ft 11s 8s 11 13 mph 1011.1mb 50f 47f
10:50am 10ft 10s 8s 9 11 mph 1010.9mb 50f 47f